Time;durP1;ratioP1;P1;durP2;ratioP2;P2;SDS_P1;SDS_P2;PMS_P1;PMS_P2;Temp;Humidity;BMP_temperature;BMP_pressure;BME280_temperature;BME280_humidity;BME280_pressure;Samples;Min_cycle;Max_cycle;Signal;HPM_P1;HPM_P2
2024/02/24 00:01:17;;;;;;;16.80;11.80;;;;;;;6.94;99.77;98344.16;217425;1256;140978;-78
2024/02/24 00:06:34;;;;;;;20.30;14.40;;;;;;;6.94;99.33;98345.55;217718;1254;141042;-79
2024/02/24 00:11:39;;;;;;;17.10;14.60;;;;;;;6.93;99.84;98339.17;218509;1255;140746;-80
2024/02/24 00:16:44;;;;;;;19.90;13.70;;;;;;;6.94;99.47;98321.76;217530;1256;139844;-79
2024/02/24 00:21:48;;;;;;;23.00;13.20;;;;;;;6.95;99.79;98316.09;217442;1256;140650;-78
2024/02/24 00:26:52;;;;;;;19.90;12.00;;;;;;;6.95;99.97;98312.13;217489;1256;140128;-78
2024/02/24 00:31:56;;;;;;;22.30;13.90;;;;;;;6.96;99.94;98319.77;218288;1254;140637;-79
2024/02/24 00:37:00;;;;;;;15.90;11.30;;;;;;;6.95;99.94;98318.48;218502;1254;139959;-79
2024/02/24 00:42:04;;;;;;;23.40;14.00;;;;;;;6.97;100.00;98315.88;217536;1255;140002;-78
2024/02/24 00:47:08;;;;;;;21.20;15.00;;;;;;;7.00;99.86;98313.25;217774;1256;140644;-79
2024/02/24 00:52:12;;;;;;;20.30;12.90;;;;;;;6.99;99.90;98304.83;217681;1256;139927;-77
2024/02/24 00:57:17;;;;;;;16.20;12.40;;;;;;;6.96;100.00;98290.00;217378;1260;140784;-77
2024/02/24 01:02:21;;;;;;;13.80;10.30;;;;;;;6.94;100.00;98284.88;217546;1257;139908;-77
2024/02/24 01:07:25;;;;;;;21.30;12.70;;;;;;;6.93;100.00;98278.83;217577;1260;140359;-76
2024/02/24 01:12:29;;;;;;;21.70;13.50;;;;;;;6.90;100.00;98272.11;217282;1257;140386;-78
2024/02/24 01:17:33;;;;;;;19.70;12.60;;;;;;;6.88;100.00;98266.90;217405;1257;140948;-76
2024/02/24 01:22:38;;;;;;;20.80;11.80;;;;;;;6.87;100.00;98268.59;217341;1259;140658;-76
2024/02/24 01:27:42;;;;;;;23.40;15.40;;;;;;;6.87;100.00;98253.11;217144;1259;141150;-75
2024/02/24 01:32:46;;;;;;;21.20;14.50;;;;;;;6.86;100.00;98248.21;217313;1261;140399;-77
2024/02/24 01:37:51;;;;;;;22.40;14.10;;;;;;;6.83;100.00;98240.17;217262;1259;142039;-77
2024/02/24 01:42:55;;;;;;;21.50;13.60;;;;;;;6.84;100.00;98241.30;217599;1258;140360;-77
2024/02/24 01:47:58;;;;;;;28.90;16.60;;;;;;;6.83;100.00;98234.92;218235;1259;232364;-79
2024/02/24 01:53:03;;;;;;;18.20;15.30;;;;;;;6.82;100.00;98228.30;217439;1256;140669;-77
2024/02/24 01:58:09;;;;;;;22.90;14.20;;;;;;;6.82;100.00;98224.33;217466;1260;140593;-79
2024/02/24 02:03:14;;;;;;;17.40;12.50;;;;;;;6.81;100.00;98222.98;218521;1257;140286;-78
2024/02/24 02:08:18;;;;;;;16.70;12.00;;;;;;;6.83;100.00;98223.60;217384;1256;139724;-79
2024/02/24 02:13:22;;;;;;;19.80;13.00;;;;;;;6.85;100.00;98220.23;220247;1257;141516;-78
2024/02/24 02:18:27;;;;;;;18.70;13.10;;;;;;;6.86;100.00;98208.18;220350;1258;140885;-79
2024/02/24 02:23:36;;;;;;;25.00;14.70;;;;;;;6.87;100.00;98202.25;218734;1260;140768;-78
2024/02/24 02:28:40;;;;;;;22.60;13.30;;;;;;;6.86;100.00;98196.00;217288;1260;139820;-77
2024/02/24 02:33:44;;;;;;;16.60;11.80;;;;;;;6.86;100.00;98186.71;218975;1259;139764;-77
2024/02/24 02:38:49;;;;;;;21.10;12.20;;;;;;;6.84;100.00;98183.41;217167;1258;151703;-77
2024/02/24 02:43:53;;;;;;;19.50;11.20;;;;;;;6.82;100.00;98173.00;217855;1260;141229;-77
2024/02/24 02:48:57;;;;;;;17.50;13.80;;;;;;;6.84;100.00;98167.58;217880;1257;140797;-76
2024/02/24 02:54:01;;;;;;;14.80;10.90;;;;;;;6.86;100.00;98168.29;217674;1261;140503;-76
2024/02/24 02:59:05;;;;;;;19.20;13.90;;;;;;;6.87;100.00;98174.77;217477;1256;140562;-77
2024/02/24 03:04:09;;;;;;;17.30;11.40;;;;;;;6.86;100.00;98176.13;217694;1256;141073;-76
2024/02/24 03:09:13;;;;;;;14.60;10.90;;;;;;;6.85;100.00;98164.52;217376;1260;140632;-76
2024/02/24 03:14:17;;;;;;;13.50;10.80;;;;;;;6.83;100.00;98171.11;217383;1259;140605;-76
2024/02/24 03:19:20;;;;;;;16.60;11.10;;;;;;;6.83;100.00;98177.52;217182;1257;139997;-77
2024/02/24 03:24:25;;;;;;;13.70;10.30;;;;;;;6.83;100.00;98181.23;217139;1258;141665;-78
2024/02/24 03:29:29;;;;;;;13.40;10.00;;;;;;;6.84;100.00;98177.48;217276;1259;141450;-77
2024/02/24 03:34:33;;;;;;;13.30;8.50;;;;;;;6.85;100.00;98176.55;217863;1256;140006;-77
2024/02/24 03:39:47;;;;;;;11.70;8.80;;;;;;;6.85;100.00;98174.63;217519;1259;140483;-77
2024/02/24 03:44:50;;;;;;;17.20;10.20;;;;;;;6.85;100.00;98172.67;217209;1261;140347;-77
2024/02/24 03:49:54;;;;;;;15.60;10.20;;;;;;;6.86;100.00;98174.00;217297;1256;140271;-78
2024/02/24 03:54:59;;;;;;;14.80;9.80;;;;;;;6.86;100.00;98175.33;217738;1256;139710;-77
2024/02/24 04:00:04;;;;;;;12.30;9.90;;;;;;;6.86;100.00;98151.65;218216;1256;139913;-78
2024/02/24 04:05:08;;;;;;;15.70;9.10;;;;;;;6.85;100.00;98133.85;217370;1256;139938;-78
2024/02/24 04:10:11;;;;;;;10.80;7.70;;;;;;;6.86;100.00;98141.00;217876;1260;141073;-80
2024/02/24 04:15:20;;;;;;;13.10;8.40;;;;;;;6.87;100.00;98134.33;217793;1256;140264;-77
2024/02/24 04:20:23;;;;;;;11.40;8.50;;;;;;;6.88;100.00;98124.45;217634;1259;141493;-77
2024/02/24 04:25:27;;;;;;;15.20;9.50;;;;;;;6.90;100.00;98128.34;217066;1261;139800;-76
2024/02/24 04:30:31;;;;;;;12.20;8.70;;;;;;;6.91;100.00;98127.49;218966;1260;140559;-76
2024/02/24 04:35:35;;;;;;;13.50;10.10;;;;;;;6.92;100.00;98128.09;217591;1256;140362;-76
2024/02/24 04:40:39;;;;;;;12.80;9.40;;;;;;;6.94;100.00;98112.96;217278;1259;141686;-76
2024/02/24 04:45:43;;;;;;;11.30;9.20;;;;;;;7.00;100.00;98111.17;217510;1259;140655;-77
2024/02/24 04:50:47;;;;;;;9.20;7.60;;;;;;;7.05;100.00;98118.55;217439;1256;140374;-78
2024/02/24 04:55:51;;;;;;;13.00;8.30;;;;;;;7.10;100.00;98119.98;217643;1256;141757;-76
2024/02/24 05:00:55;;;;;;;13.00;8.00;;;;;;;7.15;100.00;98118.23;217509;1256;141232;-78
2024/02/24 05:05:59;;;;;;;12.70;8.20;;;;;;;7.17;100.00;98111.63;217329;1260;140827;-78
2024/02/24 05:11:04;;;;;;;11.60;7.40;;;;;;;7.21;100.00;98113.26;217364;1256;139570;-78
2024/02/24 05:16:08;;;;;;;11.30;8.90;;;;;;;7.24;100.00;98118.38;217898;1261;140406;-78
2024/02/24 05:21:20;;;;;;;13.30;9.20;;;;;;;7.27;100.00;98118.14;217239;1256;140367;-77
2024/02/24 05:26:26;;;;;;;11.00;9.40;;;;;;;7.27;100.00;98125.27;217822;1260;139658;-78
2024/02/24 05:31:31;;;;;;;12.20;10.20;;;;;;;7.27;100.00;98131.06;217430;1256;139904;-78
2024/02/24 05:36:36;;;;;;;10.50;6.90;;;;;;;7.29;100.00;98138.51;217457;1256;140092;-78
2024/02/24 05:41:40;;;;;;;8.80;7.00;;;;;;;7.33;100.00;98149.08;217113;1256;140627;-79
2024/02/24 05:46:46;;;;;;;9.20;7.20;;;;;;;7.37;100.00;98149.95;217364;1257;139775;-78
2024/02/24 05:51:51;;;;;;;9.80;7.00;;;;;;;7.41;100.00;98149.40;217779;1260;139498;-77
2024/02/24 05:56:55;;;;;;;8.00;6.00;;;;;;;7.44;100.00;98159.34;217433;1259;139691;-79
2024/02/24 06:01:59;;;;;;;9.20;7.70;;;;;;;7.48;100.00;98170.63;220108;1257;139522;-77
2024/02/24 06:07:03;;;;;;;8.20;7.40;;;;;;;7.53;100.00;98182.28;220195;1259;139809;-79
2024/02/24 06:12:07;;;;;;;7.80;5.60;;;;;;;7.57;100.00;98195.42;217633;1260;140601;-77
2024/02/24 06:17:11;;;;;;;8.50;7.70;;;;;;;7.58;100.00;98200.58;217397;1257;139760;-78
2024/02/24 06:22:15;;;;;;;8.60;7.50;;;;;;;7.57;100.00;98205.08;217400;1259;142093;-75
2024/02/24 06:27:30;;;;;;;8.80;6.80;;;;;;;7.56;100.00;98213.86;217455;1257;140483;-77
2024/02/24 06:32:34;;;;;;;9.80;8.50;;;;;;;7.55;100.00;98213.33;217536;1256;139557;-76
2024/02/24 06:37:39;;;;;;;10.10;7.40;;;;;;;7.55;100.00;98215.61;217536;1259;140049;-76
2024/02/24 06:42:42;;;;;;;9.50;7.20;;;;;;;7.59;100.00;98226.56;217282;1260;140837;-77
2024/02/24 06:47:46;;;;;;;11.10;7.50;;;;;;;7.61;100.00;98246.11;217551;1256;139550;-80
2024/02/24 06:52:51;;;;;;;8.60;6.10;;;;;;;7.61;100.00;98250.35;217293;1260;142301;-77
2024/02/24 06:57:56;;;;;;;9.80;7.10;;;;;;;7.61;100.00;98254.70;217553;1260;139729;-76
2024/02/24 07:03:02;;;;;;;9.30;6.40;;;;;;;7.63;100.00;98267.08;217311;1257;141099;-77
2024/02/24 07:08:07;;;;;;;11.40;8.20;;;;;;;7.65;100.00;98275.02;218138;1256;224990;-76
2024/02/24 07:13:11;;;;;;;7.20;6.20;;;;;;;7.65;100.00;98290.52;217404;1256;140567;-78
2024/02/24 07:18:14;;;;;;;8.30;6.80;;;;;;;7.64;100.00;98303.40;217373;1262;140277;-77
2024/02/24 07:23:18;;;;;;;10.70;7.20;;;;;;;7.61;100.00;98324.07;217489;1256;139784;-77
2024/02/24 07:28:22;;;;;;;7.30;6.40;;;;;;;7.44;100.00;98329.55;217327;1260;140260;-78
2024/02/24 07:33:26;;;;;;;5.80;4.80;;;;;;;7.26;99.73;98338.52;217584;1258;512716;-77
2024/02/24 07:38:30;;;;;;;8.00;5.30;;;;;;;7.12;99.59;98356.52;217335;1257;140253;-77
2024/02/24 07:43:35;;;;;;;6.20;4.50;;;;;;;6.92;98.79;98376.35;217302;1260;139410;-77
2024/02/24 07:48:39;;;;;;;3.80;3.60;;;;;;;6.81;98.80;98393.23;217401;1260;140003;-78
2024/02/24 07:53:43;;;;;;;4.60;4.20;;;;;;;6.73;98.76;98414.42;219186;1256;140394;-78
2024/02/24 07:58:47;;;;;;;5.40;4.40;;;;;;;6.64;98.51;98435.32;220644;1256;140440;-76
2024/02/24 08:03:51;;;;;;;3.40;3.10;;;;;;;6.58;98.21;98439.98;218619;1260;139579;-76
2024/02/24 08:08:55;;;;;;;4.20;3.80;;;;;;;6.51;98.00;98445.30;217422;1258;140178;-77
2024/02/24 08:13:59;;;;;;;2.50;2.30;;;;;;;6.49;98.32;98451.20;218456;1260;139930;-77
2024/02/24 08:19:06;;;;;;;3.40;3.10;;;;;;;6.43;97.68;98456.24;217451;1257;139680;-74
2024/02/24 08:24:16;;;;;;;4.40;4.10;;;;;;;6.35;97.91;98459.35;217192;1257;140433;-76
2024/02/24 08:29:20;;;;;;;4.00;3.70;;;;;;;6.33;98.01;98470.73;217474;1257;140628;-75
2024/02/24 08:34:24;;;;;;;2.60;2.40;;;;;;;6.23;97.22;98481.73;217274;1257;139671;-77
2024/02/24 08:39:30;;;;;;;3.30;2.50;;;;;;;6.19;97.53;98489.21;217413;1260;140275;-77
2024/02/24 08:44:34;;;;;;;2.40;2.20;;;;;;;6.27;97.17;98498.05;217389;1257;139955;-76
2024/02/24 08:49:38;;;;;;;3.10;2.90;;;;;;;6.30;96.64;98513.95;217364;1258;139731;-77
2024/02/24 08:54:44;;;;;;;3.90;2.50;;;;;;;6.35;96.56;98531.40;217268;1256;140902;-75
2024/02/24 08:59:48;;;;;;;2.40;2.20;;;;;;;6.42;96.42;98544.76;217361;1257;139572;-78
2024/02/24 09:04:53;;;;;;;2.30;2.20;;;;;;;6.63;97.06;98551.74;217350;1258;140142;-76
2024/02/24 09:09:57;;;;;;;3.10;2.90;;;;;;;6.97;97.22;98559.70;217633;1258;142702;-76
2024/02/24 09:15:07;;;;;;;2.60;2.40;;;;;;;7.06;96.17;98574.46;217671;1257;139845;-77
2024/02/24 09:20:11;;;;;;;2.90;2.70;;;;;;;7.10;95.74;98583.22;217646;1260;140308;-76
2024/02/24 09:25:15;;;;;;;3.60;3.30;;;;;;;7.10;95.52;98595.83;218378;1257;139857;-82
2024/02/24 09:30:20;;;;;;;4.50;4.00;;;;;;;7.15;95.91;98605.25;217544;1259;139493;-77
2024/02/24 09:35:24;;;;;;;3.90;3.40;;;;;;;7.31;95.77;98615.54;219409;1256;141616;-78
2024/02/24 09:40:29;;;;;;;4.90;3.80;;;;;;;7.40;95.53;98628.50;218564;1257;140133;-78
2024/02/24 09:45:41;;;;;;;3.00;2.80;;;;;;;7.61;95.42;98642.30;217567;1260;139467;-75
2024/02/24 09:50:45;;;;;;;2.80;2.60;;;;;;;7.95;95.47;98659.05;217316;1260;139499;-75
2024/02/24 09:55:49;;;;;;;2.80;2.60;;;;;;;8.15;94.72;98675.05;217793;1256;140394;-74
2024/02/24 10:00:53;;;;;;;3.70;2.90;;;;;;;8.10;93.87;98686.12;217611;1257;140436;-76
2024/02/24 10:05:58;;;;;;;4.10;3.20;;;;;;;8.08;93.28;98700.74;217601;1257;139500;-73
2024/02/24 10:11:02;;;;;;;3.40;3.00;;;;;;;7.92;91.84;98711.13;217508;1256;140157;-74
2024/02/24 10:16:07;;;;;;;2.50;2.30;;;;;;;7.83;92.05;98720.54;217639;1259;140022;-72
2024/02/24 10:21:11;;;;;;;2.90;2.60;;;;;;;7.87;92.02;98734.81;217503;1257;158647;-74
2024/02/24 10:26:15;;;;;;;4.20;3.10;;;;;;;7.89;91.52;98752.00;217499;1257;140091;-77
2024/02/24 10:31:18;;;;;;;3.70;3.30;;;;;;;7.87;90.88;98757.48;217540;1257;140944;-74
2024/02/24 10:36:22;;;;;;;2.90;2.70;;;;;;;7.89;91.07;98762.64;217623;1260;141057;-76
2024/02/24 10:41:25;;;;;;;4.00;3.60;;;;;;;8.00;90.89;98773.91;217453;1259;139739;-74
2024/02/24 10:46:33;;;;;;;3.10;2.80;;;;;;;8.00;90.51;98782.14;217539;1259;140163;-74
2024/02/24 10:51:36;;;;;;;3.10;2.90;;;;;;;8.00;90.17;98788.77;217339;1258;139707;-73
2024/02/24 10:56:41;;;;;;;2.80;2.60;;;;;;;7.93;89.72;98797.17;217429;1257;139838;-76
2024/02/24 11:01:47;;;;;;;3.30;2.80;;;;;;;7.91;89.46;98815.14;217301;1259;141372;-76
2024/02/24 11:06:53;;;;;;;3.30;3.10;;;;;;;7.87;89.51;98824.93;217148;1256;140299;-77
2024/02/24 11:12:09;;;;;;;4.30;3.00;;;;;;;7.85;89.15;98839.33;218503;1257;141114;-77
2024/02/24 11:17:57;;;;;;;4.90;3.40;;;;;;;7.85;88.89;98854.29;216773;1256;140548;-77
2024/02/24 11:23:19;;;;;;;4.90;2.90;;;;;;;7.86;88.52;98859.82;216292;1263;139615;-75
2024/02/24 11:28:25;;;;;;;3.10;2.90;;;;;;;7.87;88.80;98861.00;217086;1256;139596;-75
2024/02/24 11:33:32;;;;;;;2.70;2.50;;;;;;;7.96;88.62;98867.00;217188;1256;140026;-74
2024/02/24 11:38:37;;;;;;;3.10;2.90;;;;;;;8.25;88.97;98870.86;217250;1256;140249;-77
2024/02/24 11:43:42;;;;;;;4.30;3.20;;;;;;;8.54;88.72;98883.34;217220;1256;139913;-75
2024/02/24 11:48:46;;;;;;;4.60;3.70;;;;;;;8.74;88.53;98885.14;220176;1256;140264;-77
2024/02/24 11:53:51;;;;;;;3.30;3.10;;;;;;;8.94;88.27;98890.73;217901;1257;142332;-75
2024/02/24 11:58:56;;;;;;;3.00;2.80;;;;;;;9.08;87.50;98885.73;217421;1255;139605;-76
2024/02/24 12:04:01;;;;;;;3.70;2.80;;;;;;;9.20;87.42;98893.11;217513;1257;139625;-74
2024/02/24 12:09:05;;;;;;;3.50;3.10;;;;;;;9.41;87.51;98902.69;217541;1256;140265;-76
2024/02/24 12:14:10;;;;;;;4.30;3.50;;;;;;;9.44;86.74;98913.16;217562;1256;140543;-75
2024/02/24 12:19:16;;;;;;;4.80;4.20;;;;;;;9.34;85.59;98924.24;217223;1259;140300;-76
2024/02/24 12:24:29;;;;;;;5.20;3.60;;;;;;;9.15;85.28;98925.00;217412;1256;139667;-74
2024/02/24 12:29:33;;;;;;;4.50;3.80;;;;;;;9.02;85.16;98929.88;217343;1260;140307;-74
2024/02/24 12:34:38;;;;;;;5.00;3.50;;;;;;;8.99;85.03;98944.04;217441;1257;139283;-75
2024/02/24 12:39:42;;;;;;;3.80;3.10;;;;;;;9.10;85.27;98955.77;217539;1256;140148;-78
2024/02/24 12:44:45;;;;;;;4.20;3.70;;;;;;;9.39;85.28;98961.56;217546;1256;139833;-78
2024/02/24 12:49:50;;;;;;;3.60;3.00;;;;;;;9.40;84.85;98966.84;217148;1260;140907;-78
2024/02/24 12:54:54;;;;;;;4.40;2.90;;;;;;;9.34;83.93;98970.15;217488;1257;139761;-75
2024/02/24 12:59:58;;;;;;;8.40;3.40;;;;;;;9.22;84.00;98980.98;217209;1259;139528;-75
2024/02/24 13:05:04;;;;;;;3.80;2.60;;;;;;;9.18;83.69;98988.96;217113;1260;140442;-77
2024/02/24 13:10:08;;;;;;;3.30;3.00;;;;;;;9.20;83.77;98990.02;217624;1258;139779;-78
2024/02/24 13:15:13;;;;;;;3.80;2.50;;;;;;;9.42;83.90;98994.42;217135;1259;143324;-75
2024/02/24 13:20:17;;;;;;;3.30;2.20;;;;;;;9.57;83.43;99002.34;217589;1257;140375;-77
2024/02/24 13:25:22;;;;;;;3.50;2.20;;;;;;;9.85;83.50;99005.14;217347;1257;140762;-78
2024/02/24 13:30:27;;;;;;;3.60;2.00;;;;;;;10.03;83.02;99005.48;217313;1258;140949;-77
2024/02/24 13:35:31;;;;;;;2.20;2.10;;;;;;;10.10;82.52;99004.95;218674;1258;140280;-77
2024/02/24 13:40:34;;;;;;;1.80;1.70;;;;;;;9.98;81.37;99004.67;217189;1258;139696;-80
2024/02/24 13:45:45;;;;;;;2.30;1.80;;;;;;;10.01;81.39;99014.73;218083;1259;139812;-77
2024/02/24 13:50:52;;;;;;;3.10;1.80;;;;;;;10.19;81.36;99030.17;217476;1257;139985;-75
2024/02/24 13:55:59;;;;;;;1.40;1.30;;;;;;;10.27;80.65;99043.59;218904;1258;139513;-75
2024/02/24 14:01:09;;;;;;;;;;;;;;;10.32;80.16;99052.24;217749;1261;140495;-78
2024/02/24 14:06:13;;;;;;;3.90;1.90;;;;;;;10.35;79.67;99055.89;218585;1260;126928;-76
2024/02/24 14:11:22;;;;;;;2.00;1.40;;;;;;;10.17;78.46;99062.80;217034;1261;139774;-76
2024/02/24 14:16:47;;;;;;;1.70;1.60;;;;;;;10.05;78.75;99063.34;217402;1258;141002;-76
2024/02/24 14:21:54;;;;;;;4.00;2.10;;;;;;;10.05;79.17;99068.88;217414;1257;140186;-76
2024/02/24 14:26:59;;;;;;;2.40;2.20;;;;;;;10.11;79.03;99079.00;217260;1258;141539;-77
2024/02/24 14:32:06;;;;;;;3.00;2.00;;;;;;;10.05;78.58;99078.77;217388;1260;140521;-80
2024/02/24 14:37:15;;;;;;;3.40;1.80;;;;;;;9.97;78.44;99089.59;217488;1258;140238;-76
2024/02/24 14:42:24;;;;;;;2.10;2.00;;;;;;;9.96;78.46;99099.53;217645;1257;140794;-76
2024/02/24 14:47:36;;;;;;;1.90;1.80;;;;;;;9.95;78.33;99098.61;217485;1260;139431;-75
2024/02/24 14:52:44;;;;;;;2.70;1.90;;;;;;;9.91;78.10;99099.99;217526;1260;143374;-77
2024/02/24 14:57:48;;;;;;;2.70;2.10;;;;;;;9.84;78.08;99104.42;217583;1257;140142;-76
2024/02/24 15:02:56;;;;;;;4.10;2.10;;;;;;;9.70;77.64;99103.86;217215;1258;140651;-76
2024/02/24 15:08:16;;;;;;;7.40;2.90;;;;;;;9.56;77.67;99108.54;217463;1259;140602;-77
2024/02/24 15:13:38;;;;;;;2.90;2.70;;;;;;;9.43;77.69;99120.17;217776;1258;140591;-76
2024/02/24 15:18:49;;;;;;;3.60;2.20;;;;;;;9.28;77.61;99126.14;217462;1257;139632;-78
2024/02/24 15:23:58;;;;;;;4.60;2.40;;;;;;;9.14;77.79;99136.54;217290;1257;140484;-77
2024/02/24 15:29:19;;;;;;;2.80;2.60;;;;;;;8.97;77.88;99149.10;217434;1260;141245;-78
2024/02/24 15:34:27;;;;;;;3.00;2.30;;;;;;;8.84;77.91;99154.17;217302;1259;141081;-76
2024/02/24 15:39:42;;;;;;;3.00;2.50;;;;;;;8.66;77.73;99162.27;217356;1257;140723;-76
2024/02/24 15:44:46;;;;;;;2.60;2.20;;;;;;;8.52;77.96;99170.46;218749;1258;139929;-77
2024/02/24 15:49:53;;;;;;;3.80;2.90;;;;;;;8.41;78.05;99166.30;217272;1258;140193;-78
2024/02/24 15:54:58;;;;;;;3.50;2.10;;;;;;;8.30;78.03;99174.86;217668;1258;139509;-74
2024/02/24 16:00:08;;;;;;;7.20;3.20;;;;;;;8.20;78.29;99180.38;217235;1257;140868;-75
2024/02/24 16:05:17;;;;;;;2.90;2.70;;;;;;;8.01;78.32;99188.94;217142;1258;139480;-75
2024/02/24 16:10:42;;;;;;;2.50;2.10;;;;;;;7.82;78.01;99197.25;217609;1257;139494;-76
2024/02/24 16:15:57;;;;;;;4.40;3.00;;;;;;;7.58;78.18;99201.88;217513;1257;138864;-76
2024/02/24 16:21:05;;;;;;;4.60;2.70;;;;;;;7.41;78.86;99200.42;217717;1257;139957;-72
2024/02/24 16:26:40;;;;;;;2.50;1.80;;;;;;;7.24;79.07;99214.50;217670;1258;140056;-73
2024/02/24 16:31:47;;;;;;;5.50;2.70;;;;;;;6.89;78.44;99222.76;217490;1258;141361;-77
2024/02/24 16:36:51;;;;;;;19.20;7.70;;;;;;;6.64;78.86;99235.41;217439;1257;139795;-74
2024/02/24 16:41:56;;;;;;;15.00;5.40;;;;;;;6.43;79.51;99237.77;217894;1258;139604;-74
2024/02/24 16:47:02;;;;;;;14.20;6.90;;;;;;;6.25;79.99;99246.70;217494;1259;140008;-75
2024/02/24 16:52:06;;;;;;;9.10;5.30;;;;;;;6.11;80.19;99257.17;217282;1261;140188;-75
2024/02/24 16:57:27;;;;;;;16.90;10.80;;;;;;;5.95;80.32;99259.17;217253;1257;139832;-74
2024/02/24 17:02:39;;;;;;;34.10;16.50;;;;;;;5.70;80.49;99259.92;218492;1258;139515;-74
2024/02/24 17:07:48;;;;;;;40.40;23.50;;;;;;;5.58;80.83;99267.59;217772;1258;142102;-78
2024/02/24 17:12:55;;;;;;;27.70;14.30;;;;;;;5.49;81.05;99270.92;218219;1260;139784;-75
2024/02/24 17:18:19;;;;;;;33.00;17.80;;;;;;;5.39;81.47;99269.20;218406;1260;139941;-75
2024/02/24 17:23:37;;;;;;;22.00;14.40;;;;;;;5.33;81.82;99273.00;217373;1261;140491;-76
2024/02/24 17:28:41;;;;;;;31.60;15.10;;;;;;;5.25;81.30;99270.28;219470;1257;140090;-75
2024/02/24 17:33:45;;;;;;;46.90;22.00;;;;;;;5.14;81.97;99271.77;217487;1257;140986;-76
2024/02/24 17:38:53;;;;;;;42.20;20.80;;;;;;;5.09;82.28;99275.08;217140;1257;140313;-77
2024/02/24 17:43:57;;;;;;;25.90;13.50;;;;;;;5.03;82.12;99287.59;216973;1257;140410;-74
2024/02/24 17:49:01;;;;;;;25.60;13.70;;;;;;;4.97;82.54;99290.08;217097;1257;141241;-78
2024/02/24 17:54:05;;;;;;;26.50;13.50;;;;;;;4.93;82.47;99292.89;217106;1257;139528;-71
2024/02/24 17:59:08;;;;;;;20.10;12.50;;;;;;;4.87;82.53;99303.65;218180;1257;140195;-70
2024/02/24 18:04:12;;;;;;;20.30;13.30;;;;;;;4.82;82.76;99305.74;217142;1261;139818;-71
2024/02/24 18:09:17;;;;;;;17.30;11.60;;;;;;;4.77;82.96;99308.20;217390;1257;140524;-71
2024/02/24 18:14:21;;;;;;;21.80;12.10;;;;;;;4.66;82.87;99316.73;217664;1257;139911;-72
2024/02/24 18:19:24;;;;;;;22.70;12.90;;;;;;;4.56;83.23;99321.23;217422;1260;140522;-70
2024/02/24 18:24:28;;;;;;;23.30;13.40;;;;;;;4.49;83.59;99328.98;217057;1258;139745;-74
2024/02/24 18:29:31;;;;;;;22.70;15.30;;;;;;;4.38;83.83;99329.98;217753;1258;139545;-70
2024/02/24 18:34:35;;;;;;;24.10;11.90;;;;;;;4.36;84.19;99327.98;217059;1257;140708;-71
2024/02/24 18:39:41;;;;;;;24.00;13.30;;;;;;;4.30;84.22;99324.66;218343;1257;140933;-70
2024/02/24 18:44:44;;;;;;;26.10;14.10;;;;;;;4.27;84.40;99328.98;217827;1259;139932;-72
2024/02/24 18:49:50;;;;;;;24.00;11.80;;;;;;;4.25;84.72;99335.13;217717;1257;139811;-69
2024/02/24 18:54:54;;;;;;;20.70;14.10;;;;;;;4.25;85.12;99342.27;217352;1258;140082;-71
2024/02/24 18:59:58;;;;;;;21.00;13.10;;;;;;;4.30;85.38;99346.02;217187;1261;140595;-76
2024/02/24 19:05:02;;;;;;;24.30;13.90;;;;;;;4.31;85.47;99352.19;217430;1260;141008;-73
2024/02/24 19:10:07;;;;;;;21.20;14.00;;;;;;;4.29;85.53;99359.70;217447;1259;139438;-71
2024/02/24 19:15:10;;;;;;;23.80;14.90;;;;;;;4.22;85.71;99361.71;218860;1257;140495;-73
2024/02/24 19:20:15;;;;;;;25.40;17.90;;;;;;;4.15;85.76;99353.74;220116;1257;140361;-73
2024/02/24 19:25:19;;;;;;;23.70;16.10;;;;;;;4.13;86.06;99348.63;217346;1257;140496;-73
2024/02/24 19:30:24;;;;;;;20.50;13.70;;;;;;;4.13;86.19;99349.48;217156;1259;140576;-71
2024/02/24 19:35:28;;;;;;;25.20;14.90;;;;;;;4.11;86.17;99351.75;216707;1261;711550;-71
2024/02/24 19:40:32;;;;;;;25.70;16.80;;;;;;;4.04;85.96;99346.14;216956;1260;141684;-73
2024/02/24 19:45:37;;;;;;;26.40;16.30;;;;;;;3.99;86.49;99349.83;217074;1259;139687;-72
2024/02/24 19:50:47;;;;;;;26.80;17.40;;;;;;;3.95;86.77;99350.20;217186;1259;140764;-72
2024/02/24 19:55:51;;;;;;;30.40;17.60;;;;;;;3.88;86.68;99360.70;217299;1257;139227;-72
2024/02/24 20:00:55;;;;;;;31.60;20.90;;;;;;;3.81;86.84;99363.23;217290;1258;140404;-72
2024/02/24 20:05:59;;;;;;;32.40;19.50;;;;;;;3.78;87.23;99366.64;217491;1260;140952;-71
2024/02/24 20:11:04;;;;;;;31.60;20.60;;;;;;;3.76;87.29;99377.29;217497;1261;140662;-72
2024/02/24 20:16:08;;;;;;;29.20;18.10;;;;;;;3.72;87.32;99374.48;217161;1261;139978;-72
2024/02/24 20:21:12;;;;;;;31.10;17.80;;;;;;;3.65;87.53;99368.64;216907;1261;139615;-74
2024/02/24 20:26:16;;;;;;;32.40;20.30;;;;;;;3.65;87.88;99365.20;217359;1258;141723;-73
2024/02/24 20:31:20;;;;;;;22.60;16.30;;;;;;;3.66;88.04;99362.80;218416;1259;141571;-73
2024/02/24 20:36:23;;;;;;;26.60;18.50;;;;;;;3.63;88.02;99363.48;216927;1259;140183;-73
2024/02/24 20:41:28;;;;;;;26.20;18.70;;;;;;;3.59;87.94;99367.48;217145;1258;139994;-73
2024/02/24 20:46:36;;;;;;;26.20;20.10;;;;;;;3.55;88.21;99374.61;216945;1259;140575;-75
2024/02/24 20:51:40;;;;;;;28.70;15.90;;;;;;;3.51;88.19;99367.02;217610;1259;140514;-75
2024/02/24 20:56:44;;;;;;;25.80;18.70;;;;;;;3.45;88.11;99370.39;217243;1258;140034;-72
2024/02/24 21:01:48;;;;;;;37.50;19.90;;;;;;;3.40;88.33;99369.23;217259;1259;139873;-72
2024/02/24 21:06:52;;;;;;;37.80;20.60;;;;;;;3.35;88.33;99372.14;218202;1260;139938;-71
2024/02/24 21:11:57;;;;;;;27.70;17.40;;;;;;;3.32;88.49;99373.56;217020;1261;139564;-71
2024/02/24 21:17:01;;;;;;;25.60;16.20;;;;;;;3.27;88.55;99373.98;217045;1259;139465;-73
2024/02/24 21:22:06;;;;;;;30.70;18.20;;;;;;;3.24;88.99;99367.64;217168;1258;140459;-72
2024/02/24 21:27:10;;;;;;;28.60;18.10;;;;;;;3.22;89.01;99369.34;217091;1259;139641;-72
2024/02/24 21:32:15;;;;;;;33.00;18.90;;;;;;;3.18;89.18;99372.84;217066;1261;141557;-72
2024/02/24 21:37:20;;;;;;;28.00;17.60;;;;;;;3.22;89.68;99369.83;217398;1259;139293;-71
2024/02/24 21:42:24;;;;;;;26.10;17.10;;;;;;;3.27;89.95;99369.52;217023;1261;139690;-73
2024/02/24 21:47:29;;;;;;;32.10;19.30;;;;;;;3.31;89.96;99364.65;219102;1257;141143;-72
2024/02/24 21:52:34;;;;;;;33.00;18.90;;;;;;;3.31;89.82;99370.77;217259;1260;140795;-73
2024/02/24 21:57:41;;;;;;;31.40;19.20;;;;;;;3.31;89.93;99367.11;217067;1261;140924;-72
2024/02/24 22:02:46;;;;;;;33.90;20.30;;;;;;;3.34;90.21;99368.14;217531;1259;139447;-72
2024/02/24 22:07:50;;;;;;;31.90;18.20;;;;;;;3.37;90.00;99367.23;218367;1257;140283;-72
2024/02/24 22:12:53;;;;;;;38.50;22.40;;;;;;;3.33;89.97;99368.54;216993;1261;141679;-73
2024/02/24 22:17:57;;;;;;;32.00;18.00;;;;;;;3.29;89.82;99375.29;217319;1257;139873;-72
2024/02/24 22:23:01;;;;;;;37.10;20.20;;;;;;;3.26;90.00;99373.45;217209;1259;140508;-73
2024/02/24 22:28:06;;;;;;;26.20;18.40;;;;;;;3.23;90.06;99368.89;217145;1261;139870;-72
2024/02/24 22:33:09;;;;;;;31.60;18.80;;;;;;;3.20;90.16;99365.59;217271;1257;140508;-71
2024/02/24 22:38:13;;;;;;;34.10;20.50;;;;;;;3.16;90.06;99362.38;217099;1261;139380;-76
2024/02/24 22:43:16;;;;;;;31.10;22.90;;;;;;;3.12;90.13;99361.86;217205;1259;139794;-72
2024/02/24 22:48:20;;;;;;;25.60;18.00;;;;;;;3.08;90.17;99361.64;217432;1258;140460;-71
2024/02/24 22:53:24;;;;;;;35.30;23.00;;;;;;;3.02;90.20;99367.67;217065;1261;140570;-74
2024/02/24 22:58:28;;;;;;;34.20;21.40;;;;;;;3.00;90.54;99378.60;217122;1259;140666;-71
2024/02/24 23:03:31;;;;;;;31.10;20.10;;;;;;;3.01;90.82;99377.75;217129;1261;140342;-71
2024/02/24 23:08:36;;;;;;;30.60;17.50;;;;;;;3.00;90.72;99376.94;217282;1261;140586;-70
2024/02/24 23:13:40;;;;;;;31.20;20.70;;;;;;;3.00;90.88;99377.10;217215;1259;140971;-73
2024/02/24 23:18:45;;;;;;;23.20;16.60;;;;;;;3.00;91.03;99377.75;217208;1259;139497;-71